Time;durP1;ratioP1;P1;durP2;ratioP2;P2;SDS_P1;SDS_P2;PMS_P1;PMS_P2;Temp;Humidity;BMP_temperature;BMP_pressure;BME280_temperature;BME280_humidity;BME280_pressure;Samples;Min_cycle;Max_cycle;Signal;HPM_P1;HPM_P2
2024/03/06 03:07:00;;;;;;;;;;;3.20;99.90;;;;;;6228819;22;19949;-93
2024/03/06 03:35:06;;;;;;;;;;;2.20;99.90;;;;;;6220270;22;19920;-92
2024/03/06 03:38:04;;;;;;;;;;;2.10;99.90;;;;;;6244498;22;19928;-91
2024/03/06 03:58:19;;;;;;;;;;;2.40;99.90;;;;;;6219186;23;19926;-92
2024/03/06 04:01:18;;;;;;;;;;;1.50;99.90;;;;;;6230168;23;19919;-92
2024/03/06 04:04:00;;;;;;;;;;;3.00;99.90;;;;;;6243390;23;19911;-91
2024/03/06 06:03:43;;;;;;;;;;;2.20;1.00;;;;;;6252950;22;19951;-93
2024/03/06 06:15:16;;;;;;;;;;;2.30;1.00;;;;;;6241118;22;19963;-90
2024/03/06 06:18:08;;;;;;;;;;;2.30;1.00;;;;;;6261394;22;19940;-91
2024/03/06 06:21:09;;;;;;;;;;;2.30;1.00;;;;;;6173408;23;19920;-91
2024/03/06 07:07:21;;;;;;;;;;;2.20;1.00;;;;;;6228978;23;19973;-89
2024/03/06 07:22:27;;;;;;;;;;;2.60;99.90;;;;;;6118856;23;19995;-89
2024/03/06 07:25:14;;;;;;;;;;;2.60;99.90;;;;;;6214081;23;19953;-87
2024/03/06 07:30:47;;;;;;;;;;;2.70;99.90;;;;;;6200051;23;19933;-90
2024/03/06 07:33:58;;;;;;;;;;;2.80;99.90;;;;;;6194236;23;20340;-90
2024/03/06 07:42:49;;;;;;;;;;;3.00;99.90;;;;;;6191958;23;19945;-90
2024/03/06 07:45:28;;;;;;;;;;;3.10;99.90;;;;;;6192593;23;19951;-89
2024/03/06 07:51:04;;;;;;;;;;;3.20;99.90;;;;;;6184663;23;20017;-90
2024/03/06 07:53:40;;;;;;;;;;;3.20;99.90;;;;;;6191387;23;20017;-90
2024/03/06 07:56:26;;;;;;;;;;;3.30;99.90;;;;;;6192369;23;19944;-90
2024/03/06 07:59:13;;;;;;;;;;;;;;;;;;;;;
2024/03/06 08:02:08;;;;;;;;;;;3.50;1.00;;;;;;6210504;23;19937;-87
2024/03/06 08:05:10;;;;;;;;;;;;;;;;;;;;;
2024/03/06 08:07:59;;;;;;;;;;;3.70;1.00;;;;;;6205143;23;19938;-90
2024/03/06 08:16:53;;;;;;;;;;;3.60;1.00;;;;;;6162168;23;19935;-89
2024/03/06 08:22:29;;;;;;;;;;;;;;;;;;;;;
2024/03/06 08:25:14;;;;;;;;;;;3.70;99.90;;;;;;6196164;23;19935;-90
2024/03/06 08:27:59;;;;;;;;;;;3.90;99.90;;;;;;6193982;23;19945;-89
2024/03/06 08:30:59;;;;;;;;;;;3.80;99.90;;;;;;6193973;23;19944;-90
2024/03/06 08:33:47;;;;;;;;;;;3.90;99.90;;;;;;6197724;23;19969;-89
2024/03/06 08:36:32;;;;;;;;;;;4.00;99.90;;;;;;6212809;23;19976;-88
2024/03/06 08:45:15;;;;;;;;;;;4.20;1.00;;;;;;6145178;23;20533;-88
2024/03/06 08:56:30;;;;;;;;;;;4.60;99.90;;;;;;6158823;23;20000;-89
2024/03/06 08:59:16;;;;;;;;;;;4.60;1.00;;;;;;6191522;23;20051;-90
2024/03/06 09:02:13;;;;;;;;;;;4.70;1.00;;;;;;6208713;23;19951;-89
2024/03/06 09:10:14;;;;;;;;;;;4.90;1.00;;;;;;6199691;23;19968;-88
2024/03/06 09:12:48;;;;;;;;;;;5.00;1.00;;;;;;6203807;23;19966;-90
2024/03/06 09:34:54;;;;;;;;;;;5.60;1.00;;;;;;6264774;22;19907;-88
2024/03/06 09:37:30;;;;;;;;;;;5.70;1.00;;;;;;6274905;22;19931;-89
2024/03/06 09:42:51;;;;;;;;;;;6.00;1.00;;;;;;6250808;23;20010;-90
2024/03/06 09:51:08;;;;;;;;;;;6.60;99.90;;;;;;6257345;22;20000;-90
2024/03/06 09:56:52;;;;;;;;;;;6.70;99.90;;;;;;6195043;23;20026;-90
2024/03/06 09:59:48;;;;;;;;;;;6.60;85.00;;;;;;6169624;23;19973;-90
2024/03/06 10:05:30;;;;;;;;;;;6.00;99.90;;;;;;6172090;23;19956;-90
2024/03/06 10:08:11;;;;;;;;;;;6.00;99.90;;;;;;6230398;23;19920;-89
2024/03/06 10:13:50;;;;;;;;;;;6.00;99.90;;;;;;6241057;23;19965;-90
2024/03/06 10:16:35;;;;;;;;;;;6.10;99.90;;;;;;6244460;22;19927;-89
2024/03/06 10:19:28;;;;;;;;;;;6.20;59.90;;;;;;6242955;22;19974;-89
2024/03/06 10:21:58;;;;;;;;;;;6.20;16.90;;;;;;6230362;23;19970;-90
2024/03/06 10:24:46;;;;;;;;;;;6.20;58.50;;;;;;6229522;23;19954;-90
2024/03/06 10:27:22;;;;;;;;;;;6.30;37.50;;;;;;6227048;23;19960;-90
2024/03/06 10:30:10;;;;;;;;;;;6.40;1.00;;;;;;6227588;23;19944;-90
2024/03/06 10:32:39;;;;;;;;;;;6.60;1.00;;;;;;6228531;23;19981;-89
2024/03/06 10:35:25;;;;;;;;;;;6.80;1.00;;;;;;6228681;23;19960;-89
2024/03/06 10:44:33;;;;;;;;;;;7.40;1.00;;;;;;6238683;22;19936;-88
2024/03/06 10:50:18;;;;;;;;;;;7.40;1.00;;;;;;6184533;23;19964;-89
2024/03/06 10:52:56;;;;;;;;;;;7.20;1.00;;;;;;6239608;22;19953;-89
2024/03/06 10:55:28;;;;;;;;;;;7.20;1.00;;;;;;6237297;23;19971;-89
2024/03/06 10:58:00;;;;;;;;;;;7.00;1.00;;;;;;6234945;23;19955;-89
2024/03/06 11:00:42;;;;;;;;;;;6.80;1.00;;;;;;6238610;23;19951;-89
2024/03/06 11:03:18;;;;;;;;;;;6.60;1.00;;;;;;6236431;23;19952;-89
2024/03/06 11:05:50;;;;;;;;;;;6.80;1.00;;;;;;6237820;23;19942;-90
2024/03/06 11:08:21;;;;;;;;;;;6.80;1.00;;;;;;6244884;22;19958;-88
2024/03/06 11:10:51;;;;;;;;;;;7.00;1.00;;;;;;6244824;22;19939;-87
2024/03/06 11:13:34;;;;;;;;;;;7.60;1.00;;;;;;6240045;22;19966;-89
2024/03/06 11:16:09;;;;;;;;;;;7.80;1.00;;;;;;6240297;22;20368;-90
2024/03/06 11:18:46;;;;;;;;;;;8.00;1.00;;;;;;6233124;23;19977;-91
2024/03/06 11:21:37;;;;;;;;;;;7.80;1.00;;;;;;6239308;23;19939;-88
2024/03/06 11:24:19;;;;;;;;;;;7.60;1.00;;;;;;6228000;22;19926;-90
2024/03/06 11:26:59;;;;;;;;;;;7.60;1.00;;;;;;6244436;22;19923;-88
2024/03/06 11:29:33;;;;;;;;;;;7.40;1.00;;;;;;6242171;22;19962;-92
2024/03/06 11:32:18;;;;;;;;;;;7.40;1.00;;;;;;6235896;23;19983;-90
2024/03/06 11:34:49;;;;;;;;;;;7.30;1.00;;;;;;6236461;23;19953;-90
2024/03/06 11:37:22;;;;;;;;;;;7.20;1.00;;;;;;6242267;23;19987;-90
2024/03/06 11:39:53;;;;;;;;;;;7.00;1.00;;;;;;6243017;23;19943;-90
2024/03/06 11:42:34;;;;;;;;;;;7.10;1.00;;;;;;6240979;23;19979;-88
2024/03/06 11:51:08;;;;;;;;;;;7.20;1.00;;;;;;6243803;22;19978;-88
2024/03/06 11:53:41;;;;;;;;;;;7.40;1.00;;;;;;6243618;22;19958;-89
2024/03/06 11:56:25;;;;;;;;;;;7.70;1.00;;;;;;6242719;22;19966;-89
2024/03/06 11:58:55;;;;;;;;;;;7.80;1.00;;;;;;6236559;23;19954;-89
2024/03/06 12:01:26;;;;;;;;;;;7.70;1.00;;;;;;6230223;23;19963;-90
2024/03/06 12:03:56;;;;;;;;;;;7.60;1.00;;;;;;6227304;23;19951;-90
2024/03/06 12:06:28;;;;;;;;;;;7.80;1.00;;;;;;6238114;22;20051;-88
2024/03/06 12:08:57;;;;;;;;;;;8.00;1.00;;;;;;6227340;23;19970;-89
2024/03/06 12:11:30;;;;;;;;;;;8.00;1.00;;;;;;6228242;23;20449;-89
2024/03/06 12:14:02;;;;;;;;;;;7.90;1.00;;;;;;6232654;23;20023;-89
2024/03/06 12:16:33;;;;;;;;;;;8.10;1.00;;;;;;6242593;22;19908;-87
2024/03/06 12:19:12;;;;;;;;;;;8.00;1.00;;;;;;6244265;22;19904;-94
2024/03/06 12:22:03;;;;;;;;;;;7.90;1.00;;;;;;6244505;22;19967;-93
2024/03/06 12:24:42;;;;;;;;;;;8.10;1.00;;;;;;6244202;22;19924;-91
2024/03/06 12:27:12;;;;;;;;;;;8.00;1.00;;;;;;6241385;23;19959;-89
2024/03/06 12:29:43;;;;;;;;;;;7.90;1.00;;;;;;6241465;23;19989;-90
2024/03/06 12:35:08;;;;;;;;;;;7.80;1.00;;;;;;6237577;23;19949;-89
2024/03/06 12:37:39;;;;;;;;;;;7.90;1.00;;;;;;6239233;23;19942;-89
2024/03/06 12:40:14;;;;;;;;;;;8.20;1.00;;;;;;6229696;23;19974;-90
2024/03/06 12:42:50;;;;;;;;;;;8.50;1.00;;;;;;6228349;23;20282;-89
2024/03/06 12:45:27;;;;;;;;;;;8.70;1.00;;;;;;6227316;23;19945;-89
2024/03/06 12:48:12;;;;;;;;;;;8.60;1.00;;;;;;6227143;23;19958;-89
2024/03/06 12:50:51;;;;;;;;;;;8.40;1.00;;;;;;6238478;23;20043;-90
2024/03/06 12:53:30;;;;;;;;;;;8.20;1.00;;;;;;6240192;22;19908;-90
2024/03/06 12:59:41;;;;;;;;;;;8.60;1.00;;;;;;4981022;27;5172096;-92
2024/03/06 13:02:12;;;;;;;;;;;8.70;1.00;;;;;;5157085;27;19908;-93
2024/03/06 13:04:44;;;;;;;;;;;8.50;1.00;;;;;;5157496;27;19977;-92
2024/03/06 13:07:21;;;;;;;;;;;8.60;1.00;;;;;;5156721;27;19944;-90
2024/03/06 13:09:48;;;;;;;;;;;8.40;1.00;;;;;;5154487;22;19945;-91
2024/03/06 13:12:17;;;;;;;;;;;8.40;1.00;;;;;;5051765;28;20443;-91
2024/03/06 13:14:45;;;;;;;;;;;8.20;1.00;;;;;;5049978;28;19964;-90
2024/03/06 13:17:13;;;;;;;;;;;8.10;1.00;;;;;;5052798;28;19980;-91
2024/03/06 13:19:40;;;;;;;;;;;8.30;1.00;;;;;;5050742;28;19946;-91
2024/03/06 13:22:10;;;;;;;;;;;8.10;1.00;;;;;;5046111;28;19947;-91
2024/03/06 13:24:38;;;;;;;;;;;8.40;1.00;;;;;;5048570;28;19974;-91
2024/03/06 13:27:05;;;;;;;;;;;8.50;1.00;;;;;;5049190;28;19929;-92
2024/03/06 13:29:32;;;;;;;;;;;8.40;1.00;;;;;;5046885;28;19949;-91
2024/03/06 13:32:13;;;;;;;;;;;8.30;1.00;;;;;;5046200;28;20415;-92
2024/03/06 13:34:42;;;;;;;;;;;8.20;1.00;;;;;;5043874;28;19926;-91
2024/03/06 13:37:10;;;;;;;;;;;8.30;1.00;;;;;;5042705;28;20386;-91
2024/03/06 13:39:38;;;;;;;;;;;8.00;1.00;;;;;;5046182;28;20360;-91
2024/03/06 13:42:08;;;;;;;;;;;8.10;1.00;;;;;;5029498;28;19970;-92
2024/03/06 13:44:35;;;;;;;;;;;8.10;1.00;;;;;;5055272;28;19909;-91
2024/03/06 13:47:05;;;;;;;;;;;8.30;1.00;;;;;;5055708;28;19914;-92
2024/03/06 13:49:36;;;;;;;;;;;8.30;1.00;;;;;;5055714;28;19981;-92
2024/03/06 13:52:05;;;;;;;;;;;8.20;1.00;;;;;;5051773;28;19930;-91
2024/03/06 13:54:31;;;;;;;;;;;8.20;1.00;;;;;;5043976;28;19933;-91
2024/03/06 13:57:01;;;;;;;;;;;8.10;1.00;;;;;;5042825;28;19971;-91
2024/03/06 13:59:28;;;;;;;;;;;8.20;1.00;;;;;;5047192;28;19926;-90
2024/03/06 14:01:55;;;;;;;;;;;7.90;1.00;;;;;;5050290;28;19933;-90
2024/03/06 14:04:24;;;;;;;;;;;7.70;1.00;;;;;;5046205;28;20099;-91
2024/03/06 14:06:51;;;;;;;;;;;7.70;1.00;;;;;;5044343;28;19979;-91
2024/03/06 14:09:18;;;;;;;;;;;8.00;1.00;;;;;;5037791;28;19926;-92
2024/03/06 14:11:45;;;;;;;;;;;7.80;1.00;;;;;;5029471;28;19964;-91
2024/03/06 14:14:12;;;;;;;;;;;7.70;1.00;;;;;;5029095;28;19941;-91
2024/03/06 14:16:41;;;;;;;;;;;7.80;1.00;;;;;;5040459;28;19948;-91
2024/03/06 14:19:08;;;;;;;;;;;7.80;1.00;;;;;;5035185;28;19933;-91
2024/03/06 14:21:37;;;;;;;;;;;7.80;1.00;;;;;;5030466;28;19925;-91
2024/03/06 14:24:06;;;;;;;;;;;7.90;1.00;;;;;;5033654;28;19971;-89
2024/03/06 14:26:33;;;;;;;;;;;7.90;1.00;;;;;;5041184;28;19995;-91
2024/03/06 14:29:01;;;;;;;;;;;7.90;1.00;;;;;;5041605;28;19914;-92
2024/03/06 14:31:28;;;;;;;;;;;8.00;1.00;;;;;;5041258;28;19914;-91
2024/03/06 14:33:58;;;;;;;;;;;8.00;1.00;;;;;;5040231;28;19932;-91
2024/03/06 14:36:26;;;;;;;;;;;8.00;1.00;;;;;;5040592;28;19925;-91
2024/03/06 14:38:54;;;;;;;;;;;7.90;1.00;;;;;;5040810;28;19932;-90
2024/03/06 14:41:21;;;;;;;;;;;7.80;1.00;;;;;;5038770;28;19925;-91
2024/03/06 14:43:49;;;;;;;;;;;7.90;1.00;;;;;;5037065;28;20008;-92
2024/03/06 14:46:18;;;;;;;;;;;7.80;1.00;;;;;;5033547;28;20012;-91
2024/03/06 14:48:46;;;;;;;;;;;7.80;1.00;;;;;;5027197;28;19965;-91
2024/03/06 14:51:13;;;;;;;;;;;7.70;1.00;;;;;;5024162;28;19980;-91
2024/03/06 14:53:40;;;;;;;;;;;7.80;1.00;;;;;;5025656;28;19926;-90
2024/03/06 14:56:10;;;;;;;;;;;7.90;1.00;;;;;;5027032;28;19964;-91
2024/03/06 14:58:37;;;;;;;;;;;7.90;1.00;;;;;;5039796;28;19965;-91
2024/03/06 15:01:05;;;;;;;;;;;7.80;1.00;;;;;;5040826;28;19909;-90
2024/03/06 15:03:32;;;;;;;;;;;7.90;1.00;;;;;;5037829;28;19934;-91
2024/03/06 15:05:59;;;;;;;;;;;7.90;1.00;;;;;;5040320;28;19925;-91
2024/03/06 15:08:28;;;;;;;;;;;7.80;1.00;;;;;;5040112;28;19909;-92
2024/03/06 15:10:57;;;;;;;;;;;7.80;1.00;;;;;;5034822;28;19959;-90
2024/03/06 15:13:26;;;;;;;;;;;7.80;1.00;;;;;;5034022;28;19951;-91
2024/03/06 15:15:53;;;;;;;;;;;7.90;1.00;;;;;;5037773;28;20359;-91
2024/03/06 15:18:21;;;;;;;;;;;7.80;1.00;;;;;;5037581;28;19983;-91
2024/03/06 15:20:51;;;;;;;;;;;7.90;1.00;;;;;;5025351;28;19967;-91
2024/03/06 15:23:18;;;;;;;;;;;7.90;1.00;;;;;;5026281;28;19932;-91
2024/03/06 15:25:48;;;;;;;;;;;7.90;1.00;;;;;;5024968;28;20009;-92
2024/03/06 15:28:15;;;;;;;;;;;7.90;1.00;;;;;;5024552;28;19976;-91
2024/03/06 15:30:45;;;;;;;;;;;7.80;1.00;;;;;;5024896;28;19971;-91
2024/03/06 15:33:12;;;;;;;;;;;7.80;1.00;;;;;;5035793;28;19910;-91
2024/03/06 15:35:39;;;;;;;;;;;7.90;1.00;;;;;;5032277;28;19943;-91
2024/03/06 15:38:06;;;;;;;;;;;7.80;1.00;;;;;;5028486;28;19925;-90
2024/03/06 15:40:34;;;;;;;;;;;7.70;1.00;;;;;;5031322;28;19925;-90
2024/03/06 15:43:03;;;;;;;;;;;7.70;1.00;;;;;;5026731;28;19945;-90
2024/03/06 15:45:31;;;;;;;;;;;7.70;1.00;;;;;;5026328;28;20424;-91
2024/03/06 15:48:00;;;;;;;;;;;7.70;1.00;;;;;;5033545;28;19953;-92
2024/03/06 15:50:27;;;;;;;;;;;7.80;1.00;;;;;;5038970;28;19967;-92
2024/03/06 15:52:54;;;;;;;;;;;7.70;1.00;;;;;;5034032;28;19991;-91
2024/03/06 15:55:23;;;;;;;;;;;7.80;1.00;;;;;;5028643;28;19968;-91
2024/03/06 15:57:50;;;;;;;;;;;7.70;1.00;;;;;;5029857;28;20009;-91
2024/03/06 16:00:17;;;;;;;;;;;7.60;1.00;;;;;;5038503;28;19989;-91
2024/03/06 16:02:45;;;;;;;;;;;7.60;1.00;;;;;;5037176;28;20004;-91
2024/03/06 16:05:15;;;;;;;;;;;7.60;1.00;;;;;;5037436;28;19932;-91
2024/03/06 16:07:42;;;;;;;;;;;7.60;1.00;;;;;;5034207;28;19969;-91
2024/03/06 16:10:09;;;;;;;;;;;7.60;1.00;;;;;;5032393;28;19967;-91
2024/03/06 16:12:41;;;;;;;;;;;7.60;1.00;;;;;;5035695;28;19956;-91
2024/03/06 16:15:32;;;;;;;;;;;7.60;17.00;;;;;;5038984;28;19937;-91
2024/03/06 16:18:00;;;;;;;;;;;7.50;1.00;;;;;;5011246;28;19998;-91
2024/03/06 16:20:32;;;;;;;;;;;7.50;1.00;;;;;;5039049;28;19946;-91
2024/03/06 16:22:58;;;;;;;;;;;7.50;1.00;;;;;;5038958;28;19938;-91
2024/03/06 16:25:28;;;;;;;;;;;7.50;6.90;;;;;;5037353;28;20446;-91
2024/03/06 16:27:55;;;;;;;;;;;7.50;1.00;;;;;;5034816;28;19964;-92
2024/03/06 16:30:24;;;;;;;;;;;7.50;36.80;;;;;;5031833;28;19963;-91
2024/03/06 16:32:51;;;;;;;;;;;7.60;57.40;;;;;;5033132;28;19925;-91
2024/03/06 16:35:18;;;;;;;;;;;7.50;99.90;;;;;;5031924;28;19966;-91
2024/03/06 16:37:49;;;;;;;;;;;7.50;99.90;;;;;;5029191;28;19969;-91
2024/03/06 16:40:16;;;;;;;;;;;7.40;26.30;;;;;;5029615;28;19970;-91
2024/03/06 16:42:44;;;;;;;;;;;7.40;69.00;;;;;;5029463;28;19964;-91
2024/03/06 16:45:11;;;;;;;;;;;7.40;99.50;;;;;;5030004;28;19941;-91
2024/03/06 16:47:38;;;;;;;;;;;7.40;99.90;;;;;;5033752;28;19926;-91
2024/03/06 16:50:07;;;;;;;;;;;7.40;99.90;;;;;;5027634;28;19926;-91
2024/03/06 16:52:36;;;;;;;;;;;7.40;99.90;;;;;;5029533;28;19944;-91
2024/03/06 16:55:08;;;;;;;;;;;7.60;99.90;;;;;;5027815;28;19932;-91
2024/03/06 16:57:37;;;;;;;;;;;7.40;99.90;;;;;;5030797;28;20001;-90
2024/03/06 17:00:04;;;;;;;;;;;7.30;99.90;;;;;;5032287;28;19995;-91
2024/03/06 17:02:33;;;;;;;;;;;7.40;99.90;;;;;;5031168;28;19964;-90
2024/03/06 17:04:59;;;;;;;;;;;7.30;99.90;;;;;;5033483;28;20392;-91
2024/03/06 17:07:26;;;;;;;;;;;7.30;99.90;;;;;;5034149;28;19997;-91
2024/03/06 17:09:53;;;;;;;;;;;7.30;99.90;;;;;;5032311;28;19952;-91
2024/03/06 17:12:22;;;;;;;;;;;7.20;99.90;;;;;;5033661;28;19963;-91
2024/03/06 17:14:49;;;;;;;;;;;7.30;99.90;;;;;;5034943;28;19926;-92
2024/03/06 17:17:16;;;;;;;;;;;7.20;99.90;;;;;;5034207;28;19956;-91
2024/03/06 17:19:45;;;;;;;;;;;7.20;99.90;;;;;;5031141;28;19954;-91
2024/03/06 17:22:12;;;;;;;;;;;7.30;99.90;;;;;;5029179;28;19941;-92
2024/03/06 17:24:39;;;;;;;;;;;7.30;99.90;;;;;;5029055;28;19977;-91
2024/03/06 17:27:06;;;;;;;;;;;7.20;99.90;;;;;;5033187;28;19933;-91
2024/03/06 17:29:34;;;;;;;;;;;7.20;99.90;;;;;;5038678;28;19921;-90
2024/03/06 17:32:01;;;;;;;;;;;7.20;99.90;;;;;;5038611;28;19959;-91
2024/03/06 17:34:29;;;;;;;;;;;7.20;99.90;;;;;;5033557;28;20024;-91
2024/03/06 17:36:56;;;;;;;;;;;7.20;99.90;;;;;;5030764;28;19921;-91
2024/03/06 17:39:25;;;;;;;;;;;7.30;1.00;;;;;;5030059;28;19957;-91
2024/03/06 17:41:52;;;;;;;;;;;7.30;99.90;;;;;;5028400;28;20440;-91
2024/03/06 17:44:19;;;;;;;;;;;7.20;1.00;;;;;;5029219;28;19974;-91
2024/03/06 17:46:48;;;;;;;;;;;7.20;1.00;;;;;;5033821;28;19988;-90
2024/03/06 17:49:15;;;;;;;;;;;7.20;1.00;;;;;;5034363;28;19971;-91
2024/03/06 17:51:43;;;;;;;;;;;7.20;1.00;;;;;;5034788;28;19964;-91
2024/03/06 17:54:14;;;;;;;;;;;7.20;1.00;;;;;;5039215;28;20004;-91
2024/03/06 17:56:42;;;;;;;;;;;7.10;1.00;;;;;;5036463;28;19945;-91
2024/03/06 17:59:08;;;;;;;;;;;7.20;1.00;;;;;;5034702;28;19959;-91
2024/03/06 18:01:36;;;;;;;;;;;7.30;1.00;;;;;;5034843;28;19930;-91
2024/03/06 18:04:05;;;;;;;;;;;7.20;1.00;;;;;;5034778;28;19929;-90
2024/03/06 18:06:33;;;;;;;;;;;7.20;1.00;;;;;;5038911;28;19960;-91
2024/03/06 18:09:01;;;;;;;;;;;7.30;1.00;;;;;;5041984;28;19933;-90
2024/03/06 18:11:30;;;;;;;;;;;7.60;1.00;;;;;;5041910;28;19975;-91
2024/03/06 18:13:57;;;;;;;;;;;7.40;1.00;;;;;;5041873;28;19933;-91
2024/03/06 18:16:25;;;;;;;;;;;7.20;1.00;;;;;;5040296;28;19928;-91
2024/03/06 18:18:52;;;;;;;;;;;7.20;1.00;;;;;;5037113;28;19925;-92
2024/03/06 18:21:22;;;;;;;;;;;7.20;1.00;;;;;;5035331;28;19963;-92
2024/03/06 18:23:49;;;;;;;;;;;7.10;1.00;;;;;;5033846;28;19967;-91
2024/03/06 18:26:19;;;;;;;;;;;7.10;1.00;;;;;;5033821;28;19948;-91
2024/03/06 18:28:46;;;;;;;;;;;7.20;1.00;;;;;;5037720;28;20012;-92
2024/03/06 18:31:17;;;;;;;;;;;7.20;15.70;;;;;;5037287;28;19970;-89
2024/03/06 18:33:45;;;;;;;;;;;7.20;53.70;;;;;;5038373;28;19943;-91
2024/03/06 18:36:12;;;;;;;;;;;7.20;99.90;;;;;;5036106;28;19944;-91
2024/03/06 18:38:44;;;;;;;;;;;7.50;99.90;;;;;;5031828;28;19948;-91
2024/03/06 18:41:11;;;;;;;;;;;7.20;99.90;;;;;;5040335;28;19952;-91
2024/03/06 18:43:38;;;;;;;;;;;7.10;99.90;;;;;;5041379;28;20042;-90
2024/03/06 18:46:05;;;;;;;;;;;7.10;99.90;;;;;;5041419;28;19959;-90
2024/03/06 18:48:32;;;;;;;;;;;7.10;1.00;;;;;;5041431;28;19930;-90
2024/03/06 18:50:59;;;;;;;;;;;7.10;1.00;;;;;;5041540;28;19966;-90
2024/03/06 18:53:26;;;;;;;;;;;7.00;1.00;;;;;;5041378;28;19930;-91
2024/03/06 18:55:54;;;;;;;;;;;7.00;99.90;;;;;;5039687;28;19935;-92
2024/03/06 18:58:21;;;;;;;;;;;7.10;1.00;;;;;;5036870;28;19947;-90
2024/03/06 19:00:49;;;;;;;;;;;7.00;99.90;;;;;;5029593;28;19967;-89
2024/03/06 19:03:17;;;;;;;;;;;7.00;99.90;;;;;;5038645;28;19943;-89
2024/03/06 19:05:43;;;;;;;;;;;7.00;99.90;;;;;;5040432;28;19982;-89
2024/03/06 19:08:10;;;;;;;;;;;7.00;99.90;;;;;;5029430;28;20016;-89
2024/03/06 19:33:22;;;;;;;;;;;;;;;;;;;;;
2024/03/06 19:42:05;;;;;;;;;;;7.00;1.00;;;;;;5038885;28;19963;-90
2024/03/06 19:44:37;;;;;;;;;;;7.00;99.90;;;;;;5046809;28;19965;-89
2024/03/06 19:47:08;;;;;;;;;;;7.00;99.90;;;;;;5049988;28;19957;-90
2024/03/06 19:49:43;;;;;;;;;;;6.90;99.90;;;;;;5054522;28;19944;-90
2024/03/06 19:52:15;;;;;;;;;;;6.80;1.00;;;;;;5048754;28;20310;-91
2024/03/06 19:54:42;;;;;;;;;;;6.90;1.00;;;;;;5056583;28;19974;-92
2024/03/06 19:57:13;;;;;;;;;;;6.80;1.00;;;;;;5058071;28;19927;-92
2024/03/06 19:59:40;;;;;;;;;;;6.90;1.00;;;;;;5059199;28;19951;-88
2024/03/06 20:02:10;;;;;;;;;;;6.80;1.00;;;;;;5059826;28;20590;-90
2024/03/06 20:04:40;;;;;;;;;;;6.90;1.00;;;;;;5059356;28;19928;-90
2024/03/06 20:07:09;;;;;;;;;;;6.80;99.90;;;;;;5046683;28;19958;-90
2024/03/06 20:09:36;;;;;;;;;;;6.80;99.90;;;;;;5054323;28;19970;-89
2024/03/06 20:12:04;;;;;;;;;;;7.00;99.90;;;;;;5059270;28;19951;-88
2024/03/06 20:14:32;;;;;;;;;;;6.70;1.00;;;;;;5059631;28;19943;-88
2024/03/06 20:16:59;;;;;;;;;;;6.70;1.00;;;;;;5059433;28;19930;-87
2024/03/06 20:19:25;;;;;;;;;;;6.70;99.90;;;;;;5059252;28;19985;-87
2024/03/06 20:21:53;;;;;;;;;;;6.80;99.90;;;;;;5059136;28;19945;-88
2024/03/06 20:24:23;;;;;;;;;;;6.70;99.90;;;;;;5056985;28;19935;-89
2024/03/06 20:26:50;;;;;;;;;;;6.80;99.90;;;;;;5055620;28;19948;-89
2024/03/06 20:29:18;;;;;;;;;;;6.80;99.90;;;;;;5054262;28;19963;-89
2024/03/06 20:31:46;;;;;;;;;;;6.80;99.90;;;;;;5053637;28;19968;-90
2024/03/06 20:34:18;;;;;;;;;;;6.80;99.90;;;;;;5046132;28;19956;-90
2024/03/06 20:36:51;;;;;;;;;;;6.80;99.90;;;;;;5047525;28;19971;-92
2024/03/06 20:39:22;;;;;;;;;;;6.80;99.90;;;;;;5052623;28;19925;-90
2024/03/06 20:42:11;;;;;;;;;;;6.80;99.90;;;;;;5052784;28;19978;-91
2024/03/06 20:44:47;;;;;;;;;;;6.80;1.00;;;;;;5049649;28;19966;-90
2024/03/06 20:47:30;;;;;;;;;;;6.90;1.00;;;;;;5052181;28;19956;-89
2024/03/06 20:50:23;;;;;;;;;;;6.80;1.00;;;;;;5058944;28;19959;-87
2024/03/06 20:53:04;;;;;;;;;;;6.80;1.00;;;;;;5045119;28;20012;-90
2024/03/06 21:01:34;;;;;;;;;;;6.70;99.90;;;;;;5006602;28;19948;-91
2024/03/06 21:04:02;;;;;;;;;;;6.70;99.90;;;;;;5053113;28;20332;-90
2024/03/06 21:06:29;;;;;;;;;;;6.60;99.90;;;;;;5047761;28;19925;-89
2024/03/06 21:09:06;;;;;;;;;;;6.60;99.90;;;;;;5054825;28;19925;-89
2024/03/06 21:11:32;;;;;;;;;;;6.70;99.90;;;;;;5058693;28;19963;-88
2024/03/06 21:14:00;;;;;;;;;;;6.70;99.90;;;;;;5058775;28;19929;-89
2024/03/06 21:16:27;;;;;;;;;;;6.60;1.00;;;;;;5052995;28;19948;-89
2024/03/06 21:18:54;;;;;;;;;;;6.70;1.00;;;;;;5050757;28;19945;-89
2024/03/06 21:21:22;;;;;;;;;;;6.80;1.00;;;;;;5056705;28;19968;-90
2024/03/06 21:23:52;;;;;;;;;;;6.60;99.90;;;;;;5059939;28;19913;-91
2024/03/06 21:26:25;;;;;;;;;;;6.60;1.00;;;;;;5058307;28;19940;-90
2024/03/06 21:29:30;;;;;;;;;;;6.60;1.00;;;;;;5054210;28;19966;-91
2024/03/06 21:41:48;;;;;;;;;;;6.50;1.00;;;;;;4980283;28;19971;-90
2024/03/06 21:44:31;;;;;;;;;;;6.60;1.00;;;;;;4982818;28;20051;-90
2024/03/06 21:50:28;;;;;;;;;;;;;;;;;;;;;
2024/03/06 22:12:22;;;;;;;;;;;6.60;99.90;;;;;;5003178;28;19964;-89
2024/03/06 22:14:57;;;;;;;;;;;6.60;99.90;;;;;;4990482;28;19926;-89
2024/03/06 22:33:06;;;;;;;;;;;6.50;1.00;;;;;;4992231;28;19988;-88
2024/03/06 22:39:10;;;;;;;;;;;6.50;1.00;;;;;;5046200;28;20405;-88
2024/03/06 22:45:32;;;;;;;;;;;6.40;1.00;;;;;;4963933;29;19926;-88
2024/03/06 22:51:46;;;;;;;;;;;6.50;1.00;;;;;;5055081;28;19949;-88
2024/03/06 22:57:28;;;;;;;;;;;6.50;1.00;;;;;;5016229;28;19921;-89
2024/03/06 23:00:28;;;;;;;;;;;6.50;1.00;;;;;;5042773;28;19952;-89
2024/03/06 23:03:17;;;;;;;;;;;6.40;1.00;;;;;;5010510;28;19946;-88
2024/03/06 23:06:09;;;;;;;;;;;6.50;1.00;;;;;;5044009;28;20010;-88
2024/03/06 23:14:49;;;;;;;;;;;6.40;1.00;;;;;;4885453;29;19957;-89
2024/03/06 23:23:23;;;;;;;;;;;6.50;1.00;;;;;;5041936;28;19974;-89
2024/03/06 23:26:12;;;;;;;;;;;6.50;1.00;;;;;;5041473;28;19989;-88
2024/03/06 23:28:46;;;;;;;;;;;6.40;1.00;;;;;;4980524;28;19982;-89
2024/03/06 23:31:39;;;;;;;;;;;6.50;1.00;;;;;;4981296;28;19967;-89
2024/03/06 23:34:06;;;;;;;;;;;6.50;1.00;;;;;;5027487;28;19964;-89
2024/03/06 23:36:36;;;;;;;;;;;6.50;1.00;;;;;;5044754;28;19925;-89
2024/03/06 23:39:03;;;;;;;;;;;6.50;1.00;;;;;;5049676;28;19953;-87
2024/03/06 23:41:36;;;;;;;;;;;6.40;1.00;;;;;;5059405;28;20004;-86
2024/03/06 23:44:10;;;;;;;;;;;6.40;1.00;;;;;;5060192;28;19993;-87
2024/03/06 23:47:14;;;;;;;;;;;6.50;1.00;;;;;;5060354;28;19951;-86
2024/03/06 23:50:23;;;;;;;;;;;;;;;;;;;;;
2024/03/06 23:52:58;;;;;;;;;;;6.40;1.00;;;;;;5057292;28;20011;-88
2024/03/06 23:55:41;;;;;;;;;;;6.40;1.00;;;;;;5053773;28;19931;-89
2024/03/06 23:58:30;;;;;;;;;;;6.50;1.00;;;;;;5044758;28;19941;-89
